createdAt,value
2022-09-28T00:01:17.964Z,10.45
2022-09-28T00:03:47.093Z,10.58
2022-09-28T00:06:16.899Z,10.46
2022-09-28T00:08:44.139Z,10.46
2022-09-28T00:11:13.825Z,10.40
2022-09-28T00:13:42.966Z,10.45
2022-09-28T00:16:15.637Z,10.40
2022-09-28T00:18:44.162Z,10.31
2022-09-28T00:21:14.653Z,10.23
2022-09-28T00:24:01.480Z,10.27
2022-09-28T00:26:30.926Z,10.12
2022-09-28T00:29:00.893Z,10.18
2022-09-28T00:31:33.235Z,10.09
2022-09-28T00:34:02.329Z,10.11
2022-09-28T00:36:35.788Z,10.26
2022-09-28T00:39:17.842Z,10.26
2022-09-28T00:41:46.109Z,10.27
2022-09-28T00:44:46.594Z,10.19
2022-09-28T00:47:38.845Z,10.17
2022-09-28T00:50:18.711Z,10.01
2022-09-28T00:53:03.969Z,9.95
2022-09-28T00:55:46.606Z,9.96
2022-09-28T00:58:20.313Z,9.89
2022-09-28T01:00:49.716Z,9.78
2022-09-28T01:03:17.982Z,9.70
2022-09-28T01:05:47.209Z,9.80
2022-09-28T01:08:16.310Z,9.90
2022-09-28T01:10:43.885Z,9.98
2022-09-28T01:13:13.848Z,9.87
2022-09-28T01:15:56.722Z,9.86
2022-09-28T01:18:33.249Z,9.90
2022-09-28T01:21:08.211Z,9.80
2022-09-28T01:24:03.336Z,9.86
2022-09-28T01:26:54.492Z,9.75
2022-09-28T01:29:26.046Z,9.72
2022-09-28T01:32:09.019Z,9.80
2022-09-28T01:34:44.157Z,9.67
2022-09-28T01:37:16.069Z,9.74
2022-09-28T01:39:48.527Z,9.64
2022-09-28T01:42:22.198Z,9.56
2022-09-28T01:44:52.301Z,9.66
2022-09-28T01:47:24.220Z,9.69
2022-09-28T01:50:14.803Z,9.60
2022-09-28T01:52:56.981Z,9.70
2022-09-28T01:55:33.998Z,9.76
2022-09-28T01:58:18.870Z,9.65
2022-09-28T02:00:52.213Z,9.58
2022-09-28T02:03:30.086Z,9.45
2022-09-28T02:06:14.870Z,9.46
2022-09-28T02:08:50.453Z,9.33
2022-09-28T02:11:20.819Z,9.35
2022-09-28T02:14:05.679Z,9.34
2022-09-28T02:16:45.129Z,9.30
2022-09-28T02:19:25.940Z,9.46
2022-09-28T02:22:26.288Z,9.42
2022-09-28T02:24:59.233Z,9.45
2022-09-28T02:27:38.458Z,9.45
2022-09-28T02:30:07.629Z,9.38
2022-09-28T02:32:41.429Z,9.37
2022-09-28T02:35:15.626Z,9.43
2022-09-28T02:37:44.370Z,9.53
2022-09-28T02:40:22.050Z,9.55
2022-09-28T02:42:59.998Z,9.64
2022-09-28T02:45:28.239Z,9.73
2022-09-28T02:48:15.002Z,9.70
2022-09-28T02:50:57.131Z,9.73
2022-09-28T02:53:24.253Z,9.70
2022-09-28T02:56:22.508Z,9.71
2022-09-28T02:59:10.090Z,9.40
2022-09-28T03:01:52.615Z,9.40
2022-09-28T03:04:41.975Z,9.44
2022-09-28T03:07:51.168Z,9.44
2022-09-28T03:10:54.014Z,9.53
2022-09-28T03:13:21.983Z,9.58
2022-09-28T03:15:49.227Z,9.62
2022-09-28T03:18:18.744Z,9.49
2022-09-28T03:20:47.587Z,9.40
2022-09-28T03:23:29.946Z,9.46
2022-09-28T03:25:57.593Z,9.32
2022-09-28T03:28:24.821Z,9.38
2022-09-28T03:30:52.836Z,9.53
2022-09-28T03:33:20.539Z,9.45
2022-09-28T03:35:49.201Z,9.39
2022-09-28T03:38:21.087Z,9.54
2022-09-28T03:40:55.625Z,9.68
2022-09-28T03:43:24.676Z,9.79
2022-09-28T03:45:54.136Z,9.80
2022-09-28T03:48:30.028Z,9.72
2022-09-28T03:51:02.069Z,9.82
2022-09-28T03:53:30.030Z,9.61
2022-09-28T03:56:03.803Z,9.55
2022-09-28T03:58:32.701Z,9.60
2022-09-28T04:01:14.136Z,9.57
2022-09-28T04:03:42.085Z,9.80
2022-09-28T04:06:09.551Z,9.71
2022-09-28T04:08:36.736Z,9.69
2022-09-28T04:11:04.591Z,9.84
2022-09-28T04:13:32.032Z,9.88
2022-09-28T04:16:01.275Z,9.90
2022-09-28T04:18:32.991Z,9.90
2022-09-28T04:21:12.484Z,9.97
2022-09-28T04:23:44.329Z,9.99
2022-09-28T04:26:18.108Z,10.13
2022-09-28T04:29:06.754Z,10.02
2022-09-28T04:31:49.843Z,10.09
2022-09-28T04:34:20.519Z,10.06
2022-09-28T04:36:48.744Z,9.97
2022-09-28T04:39:17.863Z,10.18
2022-09-28T04:41:49.321Z,10.16
2022-09-28T04:44:17.128Z,10.00
2022-09-28T04:46:46.118Z,9.85
2022-09-28T04:49:39.224Z,9.81
2022-09-28T04:52:17.813Z,9.81
2022-09-28T04:54:45.922Z,9.91
2022-09-28T04:57:13.111Z,9.95
2022-09-28T04:59:40.358Z,9.86
2022-09-28T05:02:07.803Z,9.93
2022-09-28T05:04:55.390Z,9.84
2022-09-28T05:07:39.189Z,9.83
2022-09-28T05:10:07.413Z,9.90
2022-09-28T05:12:35.338Z,9.94
2022-09-28T05:15:04.073Z,9.88
2022-09-28T05:17:31.865Z,9.85
2022-09-28T05:20:06.819Z,9.85
2022-09-28T05:22:34.335Z,9.92
2022-09-28T05:25:02.971Z,10.01
2022-09-28T05:27:36.567Z,9.98
2022-09-28T05:30:08.936Z,10.00
2022-09-28T05:33:14.777Z,10.08
2022-09-28T05:35:47.139Z,10.07
2022-09-28T05:38:17.412Z,10.02
2022-09-28T05:40:44.637Z,10.05
2022-09-28T05:43:11.956Z,10.06
2022-09-28T05:45:39.452Z,10.03
2022-09-28T05:48:06.800Z,10.21
2022-09-28T05:50:34.174Z,10.10
2022-09-28T05:53:05.879Z,10.23
2022-09-28T05:55:33.512Z,10.21
2022-09-28T05:58:02.328Z,10.34
2022-09-28T06:00:31.620Z,10.47
2022-09-28T06:03:11.846Z,10.53
2022-09-28T06:05:39.887Z,10.58
2022-09-28T06:08:10.482Z,10.46
2022-09-28T06:10:40.023Z,10.46
2022-09-28T06:13:08.573Z,10.37
2022-09-28T06:15:36.551Z,10.29
2022-09-28T06:18:06.908Z,10.28
2022-09-28T06:20:42.084Z,10.39
2022-09-28T06:23:14.362Z,10.43
2022-09-28T06:25:41.659Z,10.45
2022-09-28T06:28:14.434Z,10.43
2022-09-28T06:30:42.890Z,10.45
2022-09-28T06:33:14.484Z,10.46
2022-09-28T06:35:42.482Z,10.39
2022-09-28T06:38:10.336Z,10.28
2022-09-28T06:40:38.456Z,10.25
2022-09-28T06:43:10.645Z,10.24
2022-09-28T06:45:57.020Z,10.20
2022-09-28T06:48:50.781Z,10.30
2022-09-28T06:51:22.193Z,10.27
2022-09-28T06:54:04.969Z,10.23
2022-09-28T06:56:48.565Z,10.30
2022-09-28T06:59:15.931Z,10.32
2022-09-28T07:01:43.302Z,10.41
2022-09-28T07:04:31.537Z,10.39
2022-09-28T07:07:17.428Z,10.36
2022-09-28T07:09:56.359Z,10.37
2022-09-28T07:12:41.215Z,10.35
2022-09-28T07:15:29.711Z,10.39
2022-09-28T07:18:03.604Z,10.51
2022-09-28T07:20:44.055Z,10.48
2022-09-28T07:23:19.243Z,10.44
2022-09-28T07:26:08.788Z,10.45
2022-09-28T07:29:14.984Z,10.54
2022-09-28T07:31:58.734Z,10.59
2022-09-28T07:34:43.653Z,10.47
2022-09-28T07:37:35.990Z,10.55
2022-09-28T07:40:27.041Z,10.55
2022-09-28T07:42:54.536Z,10.58
2022-09-28T07:45:23.912Z,10.60
2022-09-28T07:47:56.030Z,10.55
2022-09-28T07:50:29.595Z,10.57
2022-09-28T07:53:01.483Z,10.61
2022-09-28T07:55:31.749Z,10.65
2022-09-28T07:58:11.253Z,10.55
2022-09-28T08:00:50.459Z,10.65
2022-09-28T08:03:19.960Z,10.71
2022-09-28T08:05:48.192Z,10.93
2022-09-28T08:08:15.815Z,10.92
2022-09-28T08:10:47.288Z,10.80
2022-09-28T08:13:44.108Z,10.93
2022-09-28T08:16:33.780Z,10.96
2022-09-28T08:19:19.411Z,11.06
2022-09-28T08:21:47.638Z,11.00
2022-09-28T08:24:16.835Z,11.07
2022-09-28T08:26:45.162Z,11.03
2022-09-28T08:29:16.213Z,11.10
2022-09-28T08:31:48.090Z,11.12
2022-09-28T08:34:40.362Z,11.00
2022-09-28T08:37:10.606Z,11.06
2022-09-28T08:39:56.303Z,11.12
2022-09-28T08:43:07.160Z,11.24
2022-09-28T08:45:53.277Z,11.20
2022-09-28T08:52:28.244Z,11.56
2022-09-28T08:55:18.360Z,11.58
2022-09-28T08:57:49.759Z,11.77
2022-09-28T09:00:32.384Z,11.92
2022-09-28T09:03:06.794Z,11.74
2022-09-28T09:06:05.956Z,11.57
2022-09-28T09:09:21.424Z,11.87
2022-09-28T09:12:18.679Z,11.53
2022-09-28T09:15:15.118Z,11.56
2022-09-28T09:17:52.395Z,11.65
2022-09-28T09:20:59.537Z,11.61
2022-09-28T09:24:05.443Z,11.48
2022-09-28T09:26:39.308Z,11.67
2022-09-28T09:29:17.300Z,11.48
2022-09-28T09:32:10.818Z,11.30
2022-09-28T09:35:12.504Z,11.22
2022-09-28T09:38:43.240Z,11.10
2022-09-28T09:42:00.539Z,11.02
2022-09-28T09:45:29.202Z,11.12
2022-09-28T09:48:27.613Z,11.17
2022-09-28T09:51:00.681Z,11.36
2022-09-28T09:53:38.773Z,11.48
2022-09-28T09:56:22.234Z,11.76
2022-09-28T09:59:07.995Z,11.71
2022-09-28T10:01:41.528Z,11.81
2022-09-28T10:04:26.347Z,12.05
2022-09-28T10:07:01.407Z,12.23
2022-09-28T10:09:37.942Z,12.38
2022-09-28T10:12:24.439Z,12.44
2022-09-28T10:14:52.579Z,12.47
2022-09-28T10:17:26.781Z,12.43
2022-09-28T10:20:14.895Z,12.36
2022-09-28T10:23:02.298Z,12.43
2022-09-28T10:25:34.115Z,12.47
2022-09-28T10:28:03.370Z,12.58
2022-09-28T10:30:42.117Z,12.22
2022-09-28T10:33:34.342Z,12.47
2022-09-28T10:36:06.813Z,12.69
2022-09-28T10:38:34.448Z,12.72
2022-09-28T10:41:13.595Z,12.71
2022-09-28T10:44:07.292Z,12.88
2022-09-28T10:46:40.707Z,12.67
2022-09-28T10:49:18.068Z,12.88
2022-09-28T10:51:56.242Z,12.88
2022-09-28T10:54:32.082Z,13.23
2022-09-28T10:57:01.148Z,13.38
2022-09-28T10:59:42.286Z,13.33
2022-09-28T11:02:38.627Z,13.32
2022-09-28T11:05:24.580Z,13.08
2022-09-28T11:07:57.080Z,13.01
2022-09-28T11:10:32.955Z,12.95
2022-09-28T11:13:10.193Z,12.97
2022-09-28T11:15:42.865Z,12.85
2022-09-28T11:18:32.485Z,12.72
2022-09-28T11:21:14.154Z,12.88
2022-09-28T11:24:27.731Z,12.57
2022-09-28T11:27:00.329Z,12.64
2022-09-28T11:29:43.576Z,12.83
2022-09-28T11:32:47.297Z,13.08
2022-09-28T11:35:41.765Z,13.23
2022-09-28T11:38:08.979Z,13.43
2022-09-28T11:41:24.773Z,13.40
2022-09-28T11:44:11.739Z,13.32
2022-09-28T11:46:48.300Z,13.76
2022-09-28T11:49:47.019Z,14.17
2022-09-28T11:52:22.701Z,14.18
2022-09-28T11:55:01.329Z,14.39
2022-09-28T11:57:35.833Z,14.20
2022-09-28T12:00:10.034Z,14.42
2022-09-28T12:02:51.795Z,14.19
2022-09-28T12:05:28.180Z,14.29
2022-09-28T12:08:25.677Z,13.84
2022-09-28T12:11:17.972Z,13.97
2022-09-28T12:14:28.543Z,13.98
2022-09-28T12:17:19.251Z,13.91
2022-09-28T12:20:12.403Z,14.20
2022-09-28T12:23:08.367Z,14.24
2022-09-28T12:26:03.099Z,14.29
2022-09-28T12:28:46.331Z,13.99
2022-09-28T12:31:32.085Z,13.90
2022-09-28T12:34:00.768Z,14.01
2022-09-28T12:36:33.462Z,14.14
2022-09-28T12:39:41.205Z,13.96
2022-09-28T12:42:57.408Z,13.54
2022-09-28T12:46:09.698Z,13.58
2022-09-28T12:49:36.701Z,13.57
2022-09-28T12:51:57.704Z,13.52
2022-09-28T12:54:34.743Z,13.45
2022-09-28T12:57:32.592Z,13.38
2022-09-28T13:00:13.353Z,13.21
2022-09-28T13:03:02.263Z,13.12
2022-09-28T13:06:05.414Z,13.13
2022-09-28T13:08:35.626Z,13.29
2022-09-28T13:11:26.234Z,13.37
2022-09-28T13:14:12.230Z,13.53
2022-09-28T13:17:04.784Z,13.89
2022-09-28T13:19:46.148Z,13.64
2022-09-28T13:22:32.689Z,13.83
2022-09-28T13:25:06.618Z,13.95
2022-09-28T13:27:40.694Z,13.98
2022-09-28T13:30:08.613Z,13.96
2022-09-28T13:32:37.445Z,14.00
2022-09-28T13:35:06.440Z,13.95
2022-09-28T13:37:34.742Z,13.94
2022-09-28T13:40:06.245Z,14.00
2022-09-28T13:42:51.103Z,13.96
2022-09-28T13:45:21.423Z,13.99
2022-09-28T13:47:58.294Z,13.73
2022-09-28T13:50:28.887Z,13.71
2022-09-28T13:53:11.899Z,13.63
2022-09-28T13:55:56.817Z,13.59
2022-09-28T13:58:44.307Z,13.50
2022-09-28T14:01:17.814Z,13.06
2022-09-28T14:03:57.291Z,13.25
2022-09-28T14:06:27.918Z,13.20
2022-09-28T14:09:15.919Z,13.01
2022-09-28T14:11:59.290Z,13.15
2022-09-28T14:14:44.811Z,13.32
2022-09-28T14:17:21.364Z,13.47
2022-09-28T14:19:56.354Z,13.35
2022-09-28T14:23:01.589Z,13.12
2022-09-28T14:25:32.344Z,13.05
2022-09-28T14:28:12.796Z,12.91
2022-09-28T14:30:42.831Z,12.82
2022-09-28T14:33:39.305Z,12.85
2022-09-28T14:36:38.316Z,12.63
2022-09-28T14:39:26.062Z,12.82
2022-09-28T14:41:53.324Z,12.82
2022-09-28T14:44:20.719Z,12.54
2022-09-28T14:46:48.732Z,12.61
2022-09-28T14:49:23.231Z,12.57
2022-09-28T14:51:53.749Z,12.45
2022-09-28T14:54:25.589Z,12.53
2022-09-28T14:56:52.968Z,12.69
2022-09-28T14:59:36.337Z,12.64
2022-09-28T15:02:17.223Z,12.52
2022-09-28T15:04:50.481Z,12.36
2022-09-28T15:07:55.220Z,12.42
2022-09-28T15:10:33.809Z,12.38
2022-09-28T15:13:03.455Z,12.26
2022-09-28T15:15:35.577Z,12.12
2022-09-28T15:18:35.954Z,11.88
2022-09-28T15:21:03.150Z,11.78
2022-09-28T15:23:30.621Z,11.54
2022-09-28T15:25:57.801Z,11.46
2022-09-28T15:28:25.238Z,11.59
2022-09-28T15:30:59.945Z,11.61
2022-09-28T15:33:48.644Z,11.62
2022-09-28T15:36:24.634Z,11.52
2022-09-28T15:38:57.395Z,11.38
2022-09-28T15:41:26.112Z,11.50
2022-09-28T15:44:11.306Z,11.40
2022-09-28T15:46:47.860Z,11.72
2022-09-28T15:49:48.479Z,11.62
2022-09-28T15:52:23.818Z,11.41
2022-09-28T15:54:51.362Z,11.51
2022-09-28T15:57:48.538Z,11.40
2022-09-28T16:00:21.852Z,11.39
2022-09-28T16:03:07.376Z,11.49
2022-09-28T16:06:05.658Z,11.35
2022-09-28T16:08:33.123Z,11.01
2022-09-28T16:11:38.211Z,10.88
2022-09-28T16:14:21.905Z,10.62
2022-09-28T16:16:51.847Z,10.65
2022-09-28T16:19:27.175Z,10.68
2022-09-28T16:21:59.602Z,10.37
2022-09-28T16:24:33.291Z,10.24
2022-09-28T16:27:02.674Z,10.24
2022-09-28T16:29:42.127Z,10.14
2022-09-28T16:32:41.876Z,9.94
2022-09-28T16:35:21.356Z,9.76
2022-09-28T16:37:57.720Z,9.63
2022-09-28T16:40:25.930Z,9.62
2022-09-28T16:42:56.293Z,9.58
2022-09-28T16:45:23.902Z,9.47
2022-09-28T16:47:55.019Z,9.39
2022-09-28T16:50:23.498Z,9.56
2022-09-28T16:53:25.211Z,9.52
2022-09-28T16:55:52.634Z,9.32
2022-09-28T16:58:19.844Z,9.21
2022-09-28T17:00:47.170Z,9.07
2022-09-28T17:03:18.487Z,9.03
2022-09-28T17:05:48.031Z,9.00
2022-09-28T17:08:17.791Z,8.89
2022-09-28T17:11:09.665Z,8.80
2022-09-28T17:13:36.003Z,8.63
2022-09-28T17:16:11.087Z,8.54
2022-09-28T17:18:39.950Z,8.47
2022-09-28T17:21:12.541Z,8.52
2022-09-28T17:23:39.941Z,8.43
2022-09-28T17:26:08.125Z,8.40
2022-09-28T17:28:36.584Z,8.36
2022-09-28T17:31:04.988Z,8.27
2022-09-28T17:33:32.213Z,8.18
2022-09-28T17:36:01.718Z,8.14
2022-09-28T17:38:29.347Z,8.11
2022-09-28T17:40:56.786Z,8.51
2022-09-28T17:43:24.063Z,8.81
2022-09-28T17:45:51.858Z,8.97
2022-09-28T17:48:23.513Z,8.90
2022-09-28T17:50:51.253Z,8.82
2022-09-28T17:53:19.757Z,8.81
2022-09-28T17:55:46.946Z,8.88
2022-09-28T17:58:22.261Z,8.96
2022-09-28T18:00:51.515Z,9.04
2022-09-28T18:03:24.027Z,9.12
2022-09-28T18:06:06.705Z,9.09
2022-09-28T18:08:34.555Z,9.02
2022-09-28T18:11:01.939Z,9.08
2022-09-28T18:13:29.244Z,9.13
2022-09-28T18:15:56.711Z,9.09
2022-09-28T18:18:25.164Z,9.09
2022-09-28T18:20:52.614Z,9.10
2022-09-28T18:23:20.085Z,9.07
2022-09-28T18:25:47.692Z,9.01
2022-09-28T18:28:15.209Z,8.92
2022-09-28T18:30:44.490Z,8.97
2022-09-28T18:33:13.668Z,9.00
2022-09-28T18:35:41.319Z,8.92
2022-09-28T18:38:08.578Z,8.81
2022-09-28T18:40:36.477Z,8.79
2022-09-28T18:43:04.105Z,8.62
2022-09-28T18:45:33.180Z,8.76
2022-09-28T18:48:01.183Z,8.68
2022-09-28T18:50:28.431Z,8.49
2022-09-28T18:53:11.400Z,8.52
2022-09-28T18:55:42.813Z,8.33
2022-09-28T18:58:11.718Z,8.36
2022-09-28T19:00:40.359Z,8.34
2022-09-28T19:03:11.165Z,8.19
2022-09-28T19:05:43.069Z,8.07
2022-09-28T19:08:10.504Z,8.10
2022-09-28T19:10:37.747Z,8.13
2022-09-28T19:13:05.049Z,8.29
2022-09-28T19:15:32.627Z,8.47
2022-09-28T19:17:59.971Z,8.39
2022-09-28T19:20:27.119Z,8.32
2022-09-28T19:22:55.259Z,8.18
2022-09-28T19:25:22.430Z,8.31
2022-09-28T19:27:49.574Z,8.20
2022-09-28T19:30:17.133Z,8.13
2022-09-28T19:32:44.474Z,8.24
2022-09-28T19:35:11.886Z,8.32
2022-09-28T19:37:39.434Z,8.33
2022-09-28T19:40:07.852Z,8.17
2022-09-28T19:42:36.317Z,8.01
2022-09-28T19:45:03.934Z,8.10
2022-09-28T19:47:31.891Z,8.28
2022-09-28T19:49:59.189Z,8.30
2022-09-28T19:52:26.595Z,8.19
2022-09-28T19:54:57.009Z,8.32
2022-09-28T19:57:32.594Z,8.30
2022-09-28T20:00:03.534Z,8.26
2022-09-28T20:02:35.128Z,8.34
2022-09-28T20:05:03.093Z,8.50
2022-09-28T20:07:33.085Z,8.56
2022-09-28T20:10:00.391Z,8.51
2022-09-28T20:12:27.797Z,8.48
2022-09-28T20:14:54.943Z,8.43
2022-09-28T20:17:22.155Z,8.50
2022-09-28T20:19:51.792Z,8.56
2022-09-28T20:22:20.130Z,8.50
2022-09-28T20:24:47.349Z,8.63
2022-09-28T20:27:14.858Z,8.58
2022-09-28T20:29:43.154Z,8.57
2022-09-28T20:32:11.624Z,8.58
2022-09-28T20:34:39.030Z,8.52
2022-09-28T20:37:06.323Z,8.53
2022-09-28T20:39:34.533Z,8.56
2022-09-28T20:42:02.134Z,8.56
2022-09-28T20:44:29.324Z,8.72
2022-09-28T20:46:56.817Z,8.74
2022-09-28T20:49:24.525Z,8.71
2022-09-28T20:51:51.668Z,8.80
2022-09-28T20:54:18.892Z,8.64
2022-09-28T20:56:48.258Z,8.54
2022-09-28T20:59:15.809Z,8.51
2022-09-28T21:01:43.172Z,8.55
2022-09-28T21:04:10.976Z,8.65
2022-09-28T21:06:40.586Z,8.64
2022-09-28T21:09:10.482Z,8.75
2022-09-28T21:11:40.327Z,8.77
2022-09-28T21:14:09.699Z,8.74
2022-09-28T21:16:37.103Z,8.63
2022-09-28T21:19:04.827Z,8.63
2022-09-28T21:21:32.200Z,8.67
2022-09-28T21:23:59.579Z,8.66
2022-09-28T21:26:28.629Z,8.55
2022-09-28T21:28:59.721Z,8.48
2022-09-28T21:31:33.516Z,8.74
2022-09-28T21:34:00.956Z,8.78
2022-09-28T21:36:28.369Z,8.72
2022-09-28T21:38:56.179Z,8.83
2022-09-28T21:41:26.924Z,9.02
2022-09-28T21:43:54.332Z,8.96
2022-09-28T21:46:21.718Z,8.91
2022-09-28T21:48:53.513Z,8.97
2022-09-28T21:51:21.605Z,8.94
2022-09-28T21:53:49.342Z,9.02
2022-09-28T21:56:17.591Z,8.82
2022-09-28T21:58:44.972Z,8.87
2022-09-28T22:01:16.898Z,8.80
2022-09-28T22:03:47.415Z,8.61
2022-09-28T22:06:17.119Z,8.55
2022-09-28T22:08:44.788Z,8.43
2022-09-28T22:11:23.453Z,8.32
2022-09-28T22:13:53.654Z,8.50
2022-09-28T22:16:23.282Z,8.63
2022-09-28T22:18:50.866Z,8.56
2022-09-28T22:21:26.354Z,8.29
2022-09-28T22:24:07.738Z,8.31
2022-09-28T22:26:37.123Z,8.44
2022-09-28T22:29:07.105Z,8.23
2022-09-28T22:31:36.777Z,8.25
2022-09-28T22:34:05.298Z,8.31
2022-09-28T22:36:33.860Z,7.92
2022-09-28T22:39:01.214Z,7.58
2022-09-28T22:41:28.688Z,7.81
2022-09-28T22:43:56.168Z,7.97
2022-09-28T22:46:26.697Z,7.93
2022-09-28T22:48:56.368Z,7.63
2022-09-28T22:51:24.872Z,7.84
2022-09-28T22:53:52.170Z,8.07
2022-09-28T22:56:19.730Z,8.16
2022-09-28T22:58:47.664Z,8.08
2022-09-28T23:01:30.849Z,8.03
2022-09-28T23:03:59.529Z,7.73
2022-09-28T23:06:29.079Z,7.66
2022-09-28T23:08:56.732Z,7.57
2022-09-28T23:11:24.143Z,7.56
2022-09-28T23:13:52.469Z,7.70
2022-09-28T23:16:20.290Z,7.79
2022-09-28T23:18:49.298Z,7.92
2022-09-28T23:21:18.895Z,8.07
2022-09-28T23:23:50.906Z,7.78
2022-09-28T23:26:21.205Z,7.78
2022-09-28T23:28:48.744Z,7.80
2022-09-28T23:31:18.962Z,7.64
2022-09-28T23:33:46.448Z,7.78
2022-09-28T23:36:14.037Z,7.72
2022-09-28T23:38:41.429Z,7.70
2022-09-28T23:41:09.376Z,7.77
2022-09-28T23:43:36.907Z,7.80
2022-09-28T23:46:05.251Z,7.90
2022-09-28T23:48:33.278Z,7.86
2022-09-28T23:51:00.716Z,7.99
2022-09-28T23:53:28.345Z,7.88
2022-09-28T23:55:55.748Z,7.95
2022-09-28T23:58:22.951Z,7.87
